sensor_id;sensor_type;location;lat;lon;timestamp;pressure;altitude;pressure_sealevel;temperature;humidity
78835;BME280;68187;42.682;23.352;2023-06-10T00:00:15;94766.75;;;17.96;78.40
78835;BME280;68187;42.682;23.352;2023-06-10T00:02:42;94775.75;;;17.92;78.78
78835;BME280;68187;42.682;23.352;2023-06-10T00:05:10;94781.38;;;17.90;78.41
78835;BME280;68187;42.682;23.352;2023-06-10T00:07:37;94772.94;;;17.79;78.77
78835;BME280;68187;42.682;23.352;2023-06-10T00:10:05;94758.22;;;17.65;78.67
78835;BME280;68187;42.682;23.352;2023-06-10T00:12:32;94775.94;;;17.69;78.42
78835;BME280;68187;42.682;23.352;2023-06-10T00:15:02;94772.31;;;17.65;78.47
78835;BME280;68187;42.682;23.352;2023-06-10T00:17:29;94769.66;;;17.65;79.25
78835;BME280;68187;42.682;23.352;2023-06-10T00:19:58;94766.50;;;17.63;78.92
78835;BME280;68187;42.682;23.352;2023-06-10T00:22:26;94772.50;;;17.60;79.04
78835;BME280;68187;42.682;23.352;2023-06-10T00:24:57;94776.41;;;17.63;79.12
78835;BME280;68187;42.682;23.352;2023-06-10T00:27:24;94771.06;;;17.63;78.88
78835;BME280;68187;42.682;23.352;2023-06-10T00:29:56;94778.31;;;17.62;79.26
78835;BME280;68187;42.682;23.352;2023-06-10T00:32:23;94750.66;;;17.50;78.80
78835;BME280;68187;42.682;23.352;2023-06-10T00:35:07;94777.19;;;17.63;78.88
78835;BME280;68187;42.682;23.352;2023-06-10T00:37:35;94773.94;;;17.58;79.19
78835;BME280;68187;42.682;23.352;2023-06-10T00:40:03;94783.19;;;17.60;79.54
78835;BME280;68187;42.682;23.352;2023-06-10T00:42:30;94780.53;;;17.60;79.66
78835;BME280;68187;42.682;23.352;2023-06-10T00:44:57;94753.78;;;17.43;79.48
78835;BME280;68187;42.682;23.352;2023-06-10T00:47:25;94778.16;;;17.59;79.67
78835;BME280;68187;42.682;23.352;2023-06-10T00:49:52;94768.59;;;17.58;79.77
78835;BME280;68187;42.682;23.352;2023-06-10T00:52:21;94767.78;;;17.57;80.10
78835;BME280;68187;42.682;23.352;2023-06-10T00:54:50;94780.19;;;17.62;79.95
78835;BME280;68187;42.682;23.352;2023-06-10T00:57:17;94771.56;;;17.56;79.68
78835;BME280;68187;42.682;23.352;2023-06-10T00:59:48;94778.31;;;17.62;79.58
78835;BME280;68187;42.682;23.352;2023-06-10T01:02:15;94764.47;;;17.43;79.37
78835;BME280;68187;42.682;23.352;2023-06-10T01:04:42;94776.91;;;17.56;79.74
78835;BME280;68187;42.682;23.352;2023-06-10T01:07:14;94783.81;;;17.57;79.71
78835;BME280;68187;42.682;23.352;2023-06-10T01:09:52;94780.03;;;17.41;80.21
78835;BME280;68187;42.682;23.352;2023-06-10T01:12:30;94782.69;;;17.41;80.44
78835;BME280;68187;42.682;23.352;2023-06-10T01:14:58;94776.56;;;17.41;80.13
78835;BME280;68187;42.682;23.352;2023-06-10T01:17:26;94790.91;;;17.53;80.50
78835;BME280;68187;42.682;23.352;2023-06-10T01:19:54;94789.78;;;17.54;80.02
78835;BME280;68187;42.682;23.352;2023-06-10T01:22:23;94796.25;;;17.53;80.30
78835;BME280;68187;42.682;23.352;2023-06-10T01:24:51;94773.63;;;17.51;80.28
78835;BME280;68187;42.682;23.352;2023-06-10T01:27:21;94776.75;;;17.53;80.24
78835;BME280;68187;42.682;23.352;2023-06-10T01:29:54;94779.88;;;17.55;80.16
78835;BME280;68187;42.682;23.352;2023-06-10T01:32:31;94785.88;;;17.60;79.95
78835;BME280;68187;42.682;23.352;2023-06-10T01:34:59;94783.19;;;17.60;80.57
78835;BME280;68187;42.682;23.352;2023-06-10T01:37:28;94759.75;;;17.40;80.25
78835;BME280;68187;42.682;23.352;2023-06-10T01:39:57;94783.19;;;17.60;80.43
78835;BME280;68187;42.682;23.352;2023-06-10T01:42:25;94782.69;;;17.58;80.49
78835;BME280;68187;42.682;23.352;2023-06-10T01:44:52;94771.25;;;17.58;80.71
78835;BME280;68187;42.682;23.352;2023-06-10T01:47:19;94756.19;;;17.53;80.39
78835;BME280;68187;42.682;23.352;2023-06-10T01:49:46;94777.66;;;17.65;80.58
78835;BME280;68187;42.682;23.352;2023-06-10T01:52:13;94760.72;;;17.53;80.45
78835;BME280;68187;42.682;23.352;2023-06-10T01:54:41;94770.13;;;17.59;80.23
78835;BME280;68187;42.682;23.352;2023-06-10T01:57:07;94772.81;;;17.59;80.14
78835;BME280;68187;42.682;23.352;2023-06-10T01:59:35;94764.66;;;17.55;80.10
78835;BME280;68187;42.682;23.352;2023-06-10T02:02:03;94759.91;;;17.61;80.14
78835;BME280;68187;42.682;23.352;2023-06-10T02:04:30;94761.81;;;17.60;80.16
78835;BME280;68187;42.682;23.352;2023-06-10T02:06:57;94757.72;;;17.54;80.45
78835;BME280;68187;42.682;23.352;2023-06-10T02:09:24;94763.53;;;17.56;80.52
78835;BME280;68187;42.682;23.352;2023-06-10T02:11:53;94765.75;;;17.54;80.34
78835;BME280;68187;42.682;23.352;2023-06-10T02:14:19;94760.09;;;17.56;80.14
78835;BME280;68187;42.682;23.352;2023-06-10T02:16:46;94747.81;;;17.38;79.94
78835;BME280;68187;42.682;23.352;2023-06-10T02:19:13;94745.66;;;17.40;80.10
78835;BME280;68187;42.682;23.352;2023-06-10T02:21:40;94759.00;;;17.57;80.05
78835;BME280;68187;42.682;23.352;2023-06-10T02:24:07;94755.53;;;17.56;80.58
78835;BME280;68187;42.682;23.352;2023-06-10T02:26:34;94734.03;;;17.44;80.49
78835;BME280;68187;42.682;23.352;2023-06-10T02:29:02;94739.03;;;17.54;80.58
78835;BME280;68187;42.682;23.352;2023-06-10T02:31:29;94737.78;;;17.52;80.63
78835;BME280;68187;42.682;23.352;2023-06-10T02:33:55;94742.00;;;17.61;80.43
78835;BME280;68187;42.682;23.352;2023-06-10T02:36:22;94718.75;;;17.45;80.53
78835;BME280;68187;42.682;23.352;2023-06-10T02:38:49;94740.94;;;17.62;80.65
78835;BME280;68187;42.682;23.352;2023-06-10T02:41:16;94736.53;;;17.58;80.73
78835;BME280;68187;42.682;23.352;2023-06-10T02:43:43;94733.53;;;17.59;80.65
78835;BME280;68187;42.682;23.352;2023-06-10T02:46:11;94734.34;;;17.60;80.69
78835;BME280;68187;42.682;23.352;2023-06-10T02:48:41;94734.94;;;17.65;81.05
78835;BME280;68187;42.682;23.352;2023-06-10T02:51:09;94737.94;;;17.64;80.98
78835;BME280;68187;42.682;23.352;2023-06-10T02:53:35;94728.19;;;17.59;80.88
78835;BME280;68187;42.682;23.352;2023-06-10T02:56:02;94737.78;;;17.60;81.07
78835;BME280;68187;42.682;23.352;2023-06-10T02:58:29;94733.53;;;17.59;80.71
78835;BME280;68187;42.682;23.352;2023-06-10T03:00:56;94704.66;;;17.44;80.99
78835;BME280;68187;42.682;23.352;2023-06-10T03:03:25;94719.56;;;17.54;81.07
78835;BME280;68187;42.682;23.352;2023-06-10T03:05:53;94718.31;;;17.51;81.02
78835;BME280;68187;42.682;23.352;2023-06-10T03:08:20;94743.59;;;17.62;81.07
78835;BME280;68187;42.682;23.352;2023-06-10T03:10:46;94741.38;;;17.64;81.01
78835;BME280;68187;42.682;23.352;2023-06-10T03:13:13;94738.88;;;17.59;81.28
78835;BME280;68187;42.682;23.352;2023-06-10T03:15:40;94730.25;;;17.54;81.45
78835;BME280;68187;42.682;23.352;2023-06-10T03:18:07;94739.97;;;17.58;81.64
78835;BME280;68187;42.682;23.352;2023-06-10T03:20:35;94724.91;;;17.54;81.47
78835;BME280;68187;42.682;23.352;2023-06-10T03:23:04;94739.34;;;17.61;81.45
78835;BME280;68187;42.682;23.352;2023-06-10T03:25:31;94723.00;;;17.46;81.79
78835;BME280;68187;42.682;23.352;2023-06-10T03:27:58;94752.06;;;17.64;81.46
78835;BME280;68187;42.682;23.352;2023-06-10T03:30:25;94721.78;;;17.35;81.86
78835;BME280;68187;42.682;23.352;2023-06-10T03:32:52;94767.78;;;17.57;82.27
78835;BME280;68187;42.682;23.352;2023-06-10T03:35:18;94764.00;;;17.58;82.45
78835;BME280;68187;42.682;23.352;2023-06-10T03:37:47;94772.50;;;17.60;82.94
78835;BME280;68187;42.682;23.352;2023-06-10T03:40:14;94773.59;;;17.59;82.68
78835;BME280;68187;42.682;23.352;2023-06-10T03:42:41;94771.72;;;17.51;82.97
78835;BME280;68187;42.682;23.352;2023-06-10T03:45:10;94775.16;;;17.43;83.12
78835;BME280;68187;42.682;23.352;2023-06-10T03:47:37;94767.00;;;17.40;82.57
78835;BME280;68187;42.682;23.352;2023-06-10T03:50:07;94767.75;;;17.40;82.94
78835;BME280;68187;42.682;23.352;2023-06-10T03:52:35;94756.47;;;17.35;82.55
78835;BME280;68187;42.682;23.352;2023-06-10T03:55:04;94760.09;;;17.39;82.46
78835;BME280;68187;42.682;23.352;2023-06-10T03:57:30;94756.47;;;17.43;82.35
78835;BME280;68187;42.682;23.352;2023-06-10T03:59:58;94763.84;;;17.46;81.66
78835;BME280;68187;42.682;23.352;2023-06-10T04:02:24;94766.53;;;17.46;80.88
78835;BME280;68187;42.682;23.352;2023-06-10T04:04:51;94756.63;;;17.38;80.59
78835;BME280;68187;42.682;23.352;2023-06-10T04:07:18;94753.00;;;17.43;80.51
78835;BME280;68187;42.682;23.352;2023-06-10T04:09:45;94762.28;;;17.45;80.81
78835;BME280;68187;42.682;23.352;2023-06-10T04:12:14;94762.13;;;17.50;80.57
78835;BME280;68187;42.682;23.352;2023-06-10T04:14:42;94769.34;;;17.58;80.75
78835;BME280;68187;42.682;23.352;2023-06-10T04:17:08;94759.44;;;17.50;80.38
78835;BME280;68187;42.682;23.352;2023-06-10T04:19:36;94767.63;;;17.54;80.06
78835;BME280;68187;42.682;23.352;2023-06-10T04:22:03;94770.75;;;17.47;79.63
78835;BME280;68187;42.682;23.352;2023-06-10T04:24:30;94756.31;;;17.40;79.63
78835;BME280;68187;42.682;23.352;2023-06-10T04:26:57;94773.28;;;17.52;80.00
78835;BME280;68187;42.682;23.352;2023-06-10T04:29:25;94770.00;;;17.55;79.89
78835;BME280;68187;42.682;23.352;2023-06-10T04:31:52;94776.28;;;17.59;79.75
78835;BME280;68187;42.682;23.352;2023-06-10T04:34:19;94763.19;;;17.49;79.57
78835;BME280;68187;42.682;23.352;2023-06-10T04:36:45;94763.88;;;17.55;79.56
78835;BME280;68187;42.682;23.352;2023-06-10T04:39:13;94748.31;;;17.48;78.93
78835;BME280;68187;42.682;23.352;2023-06-10T04:41:41;94767.78;;;17.66;78.52
78835;BME280;68187;42.682;23.352;2023-06-10T04:44:07;94762.28;;;17.62;78.49
78835;BME280;68187;42.682;23.352;2023-06-10T04:46:35;94736.22;;;17.51;78.02
78835;BME280;68187;42.682;23.352;2023-06-10T04:49:02;94748.75;;;17.67;78.65
78835;BME280;68187;42.682;23.352;2023-06-10T04:51:30;94745.94;;;17.64;78.33
78835;BME280;68187;42.682;23.352;2023-06-10T04:53:57;94743.91;;;17.69;77.55
78835;BME280;68187;42.682;23.352;2023-06-10T04:56:23;94760.97;;;17.94;78.08
78835;BME280;68187;42.682;23.352;2023-06-10T04:58:50;94745.72;;;17.86;78.17
78835;BME280;68187;42.682;23.352;2023-06-10T05:01:17;94763.31;;;17.96;77.79
78835;BME280;68187;42.682;23.352;2023-06-10T05:03:45;94770.03;;;18.02;77.98
78835;BME280;68187;42.682;23.352;2023-06-10T05:06:12;94769.41;;;18.05;78.16
78835;BME280;68187;42.682;23.352;2023-06-10T05:08:39;94767.19;;;18.07;78.31
78835;BME280;68187;42.682;23.352;2023-06-10T05:11:05;94751.53;;;17.97;78.38
78835;BME280;68187;42.682;23.352;2023-06-10T05:13:32;94767.81;;;18.12;77.99
78835;BME280;68187;42.682;23.352;2023-06-10T05:15:59;94764.81;;;18.14;78.43
78835;BME280;68187;42.682;23.352;2023-06-10T05:18:26;94770.63;;;18.16;78.34
78835;BME280;68187;42.682;23.352;2023-06-10T05:20:54;94739.88;;;18.01;77.98
78835;BME280;68187;42.682;23.352;2023-06-10T05:23:21;94761.00;;;18.23;77.50
78835;BME280;68187;42.682;23.352;2023-06-10T05:25:48;94749.06;;;18.21;77.87
78835;BME280;68187;42.682;23.352;2023-06-10T05:28:15;94753.78;;;18.24;77.79
78835;BME280;68187;42.682;23.352;2023-06-10T05:30:42;94735.00;;;18.03;78.23
78835;BME280;68187;42.682;23.352;2023-06-10T05:33:08;94771.53;;;18.20;78.68
78835;BME280;68187;42.682;23.352;2023-06-10T05:35:35;94765.56;;;18.23;78.66
78835;BME280;68187;42.682;23.352;2023-06-10T05:38:04;94771.69;;;18.23;78.80
78835;BME280;68187;42.682;23.352;2023-06-10T05:40:31;94767.91;;;18.24;79.31
78835;BME280;68187;42.682;23.352;2023-06-10T05:42:58;94771.81;;;18.27;79.29
78835;BME280;68187;42.682;23.352;2023-06-10T05:45:24;94755.97;;;18.22;79.73
78835;BME280;68187;42.682;23.352;2023-06-10T05:47:51;94768.81;;;18.37;78.70
78835;BME280;68187;42.682;23.352;2023-06-10T05:50:18;94759.97;;;18.45;77.97
78835;BME280;68187;42.682;23.352;2023-06-10T05:52:45;94772.53;;;18.53;78.13
78835;BME280;68187;42.682;23.352;2023-06-10T05:55:13;94754.28;;;18.55;77.85
78835;BME280;68187;42.682;23.352;2023-06-10T05:57:41;94753.75;;;18.62;77.98
78835;BME280;68187;42.682;23.352;2023-06-10T06:00:09;94777.16;;;18.73;77.72
78835;BME280;68187;42.682;23.352;2023-06-10T06:02:35;94777.16;;;18.73;77.08
78835;BME280;68187;42.682;23.352;2023-06-10T06:05:02;94780.72;;;18.77;76.61
78835;BME280;68187;42.682;23.352;2023-06-10T06:07:29;94752.47;;;18.68;76.92
78835;BME280;68187;42.682;23.352;2023-06-10T06:09:56;94783.16;;;18.91;76.28
78835;BME280;68187;42.682;23.352;2023-06-10T06:12:24;94760.06;;;18.86;75.76
78835;BME280;68187;42.682;23.352;2023-06-10T06:14:51;94776.31;;;19.02;76.00
78835;BME280;68187;42.682;23.352;2023-06-10T06:17:18;94778.03;;;19.06;76.15
78835;BME280;68187;42.682;23.352;2023-06-10T06:19:45;94770.13;;;19.10;76.04
78835;BME280;68187;42.682;23.352;2023-06-10T06:22:13;94771.84;;;19.14;75.78
78835;BME280;68187;42.682;23.352;2023-06-10T06:24:40;94754.06;;;19.10;75.42
78835;BME280;68187;42.682;23.352;2023-06-10T06:27:06;94783.44;;;19.18;75.17
78835;BME280;68187;42.682;23.352;2023-06-10T06:29:34;94778.88;;;19.19;74.85
78835;BME280;68187;42.682;23.352;2023-06-10T06:32:01;94782.81;;;19.21;74.82
78835;BME280;68187;42.682;23.352;2023-06-10T06:34:28;94782.13;;;19.24;74.41
78835;BME280;68187;42.682;23.352;2023-06-10T06:36:55;94765.44;;;19.28;74.79
78835;BME280;68187;42.682;23.352;2023-06-10T06:39:22;94752.22;;;19.22;74.20
78835;BME280;68187;42.682;23.352;2023-06-10T06:41:48;94746.53;;;19.24;74.39
78835;BME280;68187;42.682;23.352;2023-06-10T06:44:15;94774.47;;;19.44;75.14
78835;BME280;68187;42.682;23.352;2023-06-10T06:46:43;94770.66;;;19.45;74.36
78835;BME280;68187;42.682;23.352;2023-06-10T06:49:10;94754.13;;;19.43;74.09
78835;BME280;68187;42.682;23.352;2023-06-10T06:51:37;94758.75;;;19.54;72.77
78835;BME280;68187;42.682;23.352;2023-06-10T06:54:04;94739.66;;;19.44;72.52
78835;BME280;68187;42.682;23.352;2023-06-10T06:56:31;94755.28;;;19.54;72.54
78835;BME280;68187;42.682;23.352;2023-06-10T06:58:57;94760.72;;;19.45;72.16
78835;BME280;68187;42.682;23.352;2023-06-10T07:01:24;94755.56;;;19.40;72.32
78835;BME280;68187;42.682;23.352;2023-06-10T07:03:52;94762.16;;;19.43;70.79
78835;BME280;68187;42.682;23.352;2023-06-10T07:06:19;94759.50;;;19.43;69.96
78835;BME280;68187;42.682;23.352;2023-06-10T07:08:46;94765.34;;;19.57;70.86
78835;BME280;68187;42.682;23.352;2023-06-10T07:11:13;94726.56;;;19.42;70.19
78835;BME280;68187;42.682;23.352;2023-06-10T07:13:41;94735.00;;;19.53;69.90
78835;BME280;68187;42.682;23.352;2023-06-10T07:16:08;94751.91;;;19.77;68.68
78835;BME280;68187;42.682;23.352;2023-06-10T07:18:34;94758.06;;;19.90;68.33
78835;BME280;68187;42.682;23.352;2023-06-10T07:21:03;94739.22;;;19.86;68.86
78835;BME280;68187;42.682;23.352;2023-06-10T07:23:29;94751.50;;;20.00;65.54
78835;BME280;68187;42.682;23.352;2023-06-10T07:25:56;94745.59;;;19.94;66.50
78835;BME280;68187;42.682;23.352;2023-06-10T07:28:23;94750.41;;;20.01;66.60
78835;BME280;68187;42.682;23.352;2023-06-10T07:30:50;94735.56;;;20.03;64.09
78835;BME280;68187;42.682;23.352;2023-06-10T07:33:16;94735.13;;;20.13;64.21
78835;BME280;68187;42.682;23.352;2023-06-10T07:35:43;94740.53;;;20.25;64.55
78835;BME280;68187;42.682;23.352;2023-06-10T07:38:11;94731.25;;;20.23;64.77
78835;BME280;68187;42.682;23.352;2023-06-10T07:40:38;94748.59;;;20.37;63.82
78835;BME280;68187;42.682;23.352;2023-06-10T07:43:05;94743.41;;;20.44;63.96
78835;BME280;68187;42.682;23.352;2023-06-10T07:45:31;94740.09;;;20.59;63.26
78835;BME280;68187;42.682;23.352;2023-06-10T07:47:58;94740.97;;;20.63;61.92
78835;BME280;68187;42.682;23.352;2023-06-10T07:50:25;94745.09;;;20.85;60.79
78835;BME280;68187;42.682;23.352;2023-06-10T07:52:52;94750.78;;;21.08;59.23
78835;BME280;68187;42.682;23.352;2023-06-10T07:55:20;94733.06;;;21.19;55.48
78835;BME280;68187;42.682;23.352;2023-06-10T07:57:47;94742.44;;;21.25;55.32
78835;BME280;68187;42.682;23.352;2023-06-10T08:00:14;94739.47;;;21.42;53.52
78835;BME280;68187;42.682;23.352;2023-06-10T08:02:41;94735.28;;;21.57;53.79
78835;BME280;68187;42.682;23.352;2023-06-10T08:05:08;94705.63;;;21.53;52.22
78835;BME280;68187;42.682;23.352;2023-06-10T08:07:35;94742.88;;;21.82;53.87
78835;BME280;68187;42.682;23.352;2023-06-10T08:10:02;94739.53;;;21.85;52.12
78835;BME280;68187;42.682;23.352;2023-06-10T08:12:32;94722.06;;;21.79;53.13
78835;BME280;68187;42.682;23.352;2023-06-10T08:14:59;94732.59;;;22.00;52.05
78835;BME280;68187;42.682;23.352;2023-06-10T08:17:26;94733.47;;;22.20;50.56
78835;BME280;68187;42.682;23.352;2023-06-10T08:19:53;94734.63;;;22.34;51.35
78835;BME280;68187;42.682;23.352;2023-06-10T08:22:19;94732.16;;;22.45;54.03
78835;BME280;68187;42.682;23.352;2023-06-10T08:24:46;94705.53;;;22.40;51.48
78835;BME280;68187;42.682;23.352;2023-06-10T08:27:13;94706.91;;;22.49;51.13
78835;BME280;68187;42.682;23.352;2023-06-10T08:29:41;94711.66;;;22.56;49.96
78835;BME280;68187;42.682;23.352;2023-06-10T08:32:08;94707.97;;;22.60;50.28
78835;BME280;68187;42.682;23.352;2023-06-10T08:34:35;94696.06;;;22.61;50.30
78835;BME280;68187;42.682;23.352;2023-06-10T08:37:03;94710.78;;;22.83;54.02
78835;BME280;68187;42.682;23.352;2023-06-10T08:39:30;94698.75;;;22.96;51.60
78835;BME280;68187;42.682;23.352;2023-06-10T08:42:04;94699.75;;;23.07;49.62
78835;BME280;68187;42.682;23.352;2023-06-10T08:44:35;94702.78;;;23.06;48.69
78835;BME280;68187;42.682;23.352;2023-06-10T08:47:11;94694.59;;;22.99;48.42
78835;BME280;68187;42.682;23.352;2023-06-10T08:49:43;94697.72;;;23.01;48.48
78835;BME280;68187;42.682;23.352;2023-06-10T08:52:14;94703.00;;;22.97;47.46
78835;BME280;68187;42.682;23.352;2023-06-10T08:54:43;94690.53;;;23.08;49.48
78835;BME280;68187;42.682;23.352;2023-06-10T08:57:10;94677.22;;;23.15;51.00
78835;BME280;68187;42.682;23.352;2023-06-10T08:59:37;94663.81;;;23.19;47.31
78835;BME280;68187;42.682;23.352;2023-06-10T09:02:07;94663.50;;;23.39;49.93
78835;BME280;68187;42.682;23.352;2023-06-10T09:04:36;94680.19;;;23.68;47.20
78835;BME280;68187;42.682;23.352;2023-06-10T09:07:04;94674.63;;;23.80;47.39
78835;BME280;68187;42.682;23.352;2023-06-10T09:09:31;94677.47;;;23.87;44.49
78835;BME280;68187;42.682;23.352;2023-06-10T09:11:58;94656.41;;;23.73;45.90
78835;BME280;68187;42.682;23.352;2023-06-10T09:14:25;94677.59;;;23.94;45.02
78835;BME280;68187;42.682;23.352;2023-06-10T09:16:52;94678.13;;;24.03;45.97
78835;BME280;68187;42.682;23.352;2023-06-10T09:19:23;94680.34;;;24.20;46.05
78835;BME280;68187;42.682;23.352;2023-06-10T09:21:51;94646.41;;;24.19;43.61
78835;BME280;68187;42.682;23.352;2023-06-10T09:24:18;94671.91;;;24.48;45.20
78835;BME280;68187;42.682;23.352;2023-06-10T09:26:45;94670.97;;;24.63;44.85
78835;BME280;68187;42.682;23.352;2023-06-10T09:29:11;94667.44;;;24.59;44.20
78835;BME280;68187;42.682;23.352;2023-06-10T09:31:39;94666.50;;;24.74;43.25
78835;BME280;68187;42.682;23.352;2023-06-10T09:34:07;94655.81;;;24.81;43.57
78835;BME280;68187;42.682;23.352;2023-06-10T09:36:37;94666.81;;;24.95;42.58
78835;BME280;68187;42.682;23.352;2023-06-10T09:39:05;94674.00;;;24.84;42.78
78835;BME280;68187;42.682;23.352;2023-06-10T09:41:39;94664.59;;;24.74;42.54
78835;BME280;68187;42.682;23.352;2023-06-10T09:44:11;94656.16;;;24.76;43.55
78835;BME280;68187;42.682;23.352;2023-06-10T09:46:39;94654.94;;;24.73;43.16
78835;BME280;68187;42.682;23.352;2023-06-10T09:49:07;94653.13;;;24.55;44.09
78835;BME280;68187;42.682;23.352;2023-06-10T09:51:34;94654.38;;;24.35;45.75
78835;BME280;68187;42.682;23.352;2023-06-10T09:54:03;94655.69;;;24.22;47.63
78835;BME280;68187;42.682;23.352;2023-06-10T09:56:34;94633.69;;;23.97;46.66
78835;BME280;68187;42.682;23.352;2023-06-10T09:59:01;94642.75;;;24.08;46.90
78835;BME280;68187;42.682;23.352;2023-06-10T10:01:30;94643.72;;;24.45;47.48
78835;BME280;68187;42.682;23.352;2023-06-10T10:03:58;94643.25;;;24.66;45.58
78835;BME280;68187;42.682;23.352;2023-06-10T10:06:26;94636.97;;;24.58;44.90
78835;BME280;68187;42.682;23.352;2023-06-10T10:08:54;94612.28;;;24.30;44.03
78835;BME280;68187;42.682;23.352;2023-06-10T10:11:23;94637.47;;;24.67;44.52
78835;BME280;68187;42.682;23.352;2023-06-10T10:13:52;94593.53;;;24.70;45.98
78835;BME280;68187;42.682;23.352;2023-06-10T10:16:20;94630.94;;;25.28;43.46
78835;BME280;68187;42.682;23.352;2023-06-10T10:18:52;94612.44;;;25.30;40.43
78835;BME280;68187;42.682;23.352;2023-06-10T10:21:23;94630.00;;;25.46;42.38
78835;BME280;68187;42.682;23.352;2023-06-10T10:23:53;94630.44;;;25.52;41.64
78835;BME280;68187;42.682;23.352;2023-06-10T10:26:26;94617.44;;;25.65;40.46
78835;BME280;68187;42.682;23.352;2023-06-10T10:29:01;94620.34;;;25.86;43.23
78835;BME280;68187;42.682;23.352;2023-06-10T10:31:32;94616.81;;;25.78;42.71
78835;BME280;68187;42.682;23.352;2023-06-10T10:34:04;94610.31;;;25.46;43.41
78835;BME280;68187;42.682;23.352;2023-06-10T10:36:33;94614.31;;;25.26;42.97
78835;BME280;68187;42.682;23.352;2023-06-10T10:38:59;94620.16;;;25.31;43.34
78835;BME280;68187;42.682;23.352;2023-06-10T10:41:30;94613.44;;;25.52;42.28
78835;BME280;68187;42.682;23.352;2023-06-10T10:43:58;94607.47;;;25.72;42.29
78835;BME280;68187;42.682;23.352;2023-06-10T10:46:25;94596.44;;;25.91;40.61
78835;BME280;68187;42.682;23.352;2023-06-10T10:48:53;94597.03;;;25.74;41.52
78835;BME280;68187;42.682;23.352;2023-06-10T10:51:22;94593.81;;;25.58;42.38
78835;BME280;68187;42.682;23.352;2023-06-10T10:54:10;94602.13;;;25.42;41.48
78835;BME280;68187;42.682;23.352;2023-06-10T10:56:39;94589.13;;;25.18;43.32
78835;BME280;68187;42.682;23.352;2023-06-10T10:59:06;94600.97;;;25.07;42.37
78835;BME280;68187;42.682;23.352;2023-06-10T11:01:41;94588.84;;;24.94;41.89
78835;BME280;68187;42.682;23.352;2023-06-10T11:04:11;94586.03;;;25.16;43.41
78835;BME280;68187;42.682;23.352;2023-06-10T11:06:38;94596.72;;;25.42;43.78
78835;BME280;68187;42.682;23.352;2023-06-10T11:09:26;94589.56;;;25.61;43.02
78835;BME280;68187;42.682;23.352;2023-06-10T11:11:56;94584.09;;;25.94;41.66
78835;BME280;68187;42.682;23.352;2023-06-10T11:14:26;94575.47;;;26.29;40.67
78835;BME280;68187;42.682;23.352;2023-06-10T11:16:56;94573.38;;;26.69;42.09
78835;BME280;68187;42.682;23.352;2023-06-10T11:19:33;94554.53;;;26.91;41.53
78835;BME280;68187;42.682;23.352;2023-06-10T11:22:02;94570.81;;;27.01;39.49
78835;BME280;68187;42.682;23.352;2023-06-10T11:24:29;94532.69;;;26.59;37.65
78835;BME280;68187;42.682;23.352;2023-06-10T11:27:16;94543.78;;;26.33;38.27
78835;BME280;68187;42.682;23.352;2023-06-10T11:30:17;94551.69;;;26.08;40.19
78835;BME280;68187;42.682;23.352;2023-06-10T11:32:45;94559.94;;;25.75;41.90
78835;BME280;68187;42.682;23.352;2023-06-10T11:35:18;94545.41;;;25.46;40.42
78835;BME280;68187;42.682;23.352;2023-06-10T11:37:46;94549.31;;;25.15;42.46
78835;BME280;68187;42.682;23.352;2023-06-10T11:40:13;94552.06;;;25.19;41.93
78835;BME280;68187;42.682;23.352;2023-06-10T11:42:42;94544.19;;;25.03;42.49
78835;BME280;68187;42.682;23.352;2023-06-10T11:45:09;94532.53;;;24.99;42.96
78835;BME280;68187;42.682;23.352;2023-06-10T11:47:36;94522.09;;;24.98;42.32
78835;BME280;68187;42.682;23.352;2023-06-10T11:50:03;94544.63;;;25.09;40.18
78835;BME280;68187;42.682;23.352;2023-06-10T11:52:30;94539.91;;;25.02;42.64
78835;BME280;68187;42.682;23.352;2023-06-10T11:54:59;94520.50;;;24.90;44.02
78835;BME280;68187;42.682;23.352;2023-06-10T11:57:25;94541.59;;;25.14;44.26
78835;BME280;68187;42.682;23.352;2023-06-10T11:59:54;94527.16;;;25.39;41.97
78835;BME280;68187;42.682;23.352;2023-06-10T12:02:21;94533.03;;;25.92;36.73
78835;BME280;68187;42.682;23.352;2023-06-10T12:04:48;94502.69;;;26.16;37.59
78835;BME280;68187;42.682;23.352;2023-06-10T12:07:18;94515.72;;;26.72;37.28
78835;BME280;68187;42.682;23.352;2023-06-10T12:09:46;94513.91;;;27.05;37.63
78835;BME280;68187;42.682;23.352;2023-06-10T12:12:13;94501.56;;;27.21;35.43
78835;BME280;68187;42.682;23.352;2023-06-10T12:14:55;94502.66;;;26.99;35.12
78835;BME280;68187;42.682;23.352;2023-06-10T12:17:24;94497.56;;;26.76;34.32
78835;BME280;68187;42.682;23.352;2023-06-10T12:20:03;94519.22;;;26.73;35.09
78835;BME280;68187;42.682;23.352;2023-06-10T12:22:36;94482.59;;;26.25;34.67
78835;BME280;68187;42.682;23.352;2023-06-10T12:25:04;94526.72;;;26.29;34.45
78835;BME280;68187;42.682;23.352;2023-06-10T12:27:32;94527.72;;;26.06;36.56
78835;BME280;68187;42.682;23.352;2023-06-10T12:30:03;94525.28;;;25.91;37.09
78835;BME280;68187;42.682;23.352;2023-06-10T12:32:40;94518.22;;;25.76;36.57
78835;BME280;68187;42.682;23.352;2023-06-10T12:35:09;94502.97;;;25.54;37.20
78835;BME280;68187;42.682;23.352;2023-06-10T12:37:36;94521.56;;;25.59;37.52
78835;BME280;68187;42.682;23.352;2023-06-10T12:40:06;94507.56;;;25.46;36.20
78835;BME280;68187;42.682;23.352;2023-06-10T12:42:35;94500.41;;;25.31;38.91
78835;BME280;68187;42.682;23.352;2023-06-10T12:45:04;94509.31;;;25.31;38.34
78835;BME280;68187;42.682;23.352;2023-06-10T12:47:33;94504.25;;;25.26;35.80
78835;BME280;68187;42.682;23.352;2023-06-10T12:50:02;94507.00;;;25.30;34.63
78835;BME280;68187;42.682;23.352;2023-06-10T12:52:29;94495.00;;;25.27;33.86
78835;BME280;68187;42.682;23.352;2023-06-10T12:54:56;94501.53;;;25.23;32.94